sensor_id;sensor_type;location;lat;lon;timestamp;pressure;altitude;pressure_sealevel;temperature;humidity
29247;BME280;16272;48.188;9.964;2023-05-03T00:01:36;96470.00;;;6.13;81.87
29247;BME280;16272;48.188;9.964;2023-05-03T00:04:01;96472.63;;;6.25;80.39
29247;BME280;16272;48.188;9.964;2023-05-03T00:06:27;96477.28;;;6.35;79.41
29247;BME280;16272;48.188;9.964;2023-05-03T00:08:53;96476.81;;;6.41;78.57
29247;BME280;16272;48.188;9.964;2023-05-03T00:11:18;96467.56;;;6.22;79.75
29247;BME280;16272;48.188;9.964;2023-05-03T00:13:43;96476.63;;;6.31;79.83
29247;BME280;16272;48.188;9.964;2023-05-03T00:16:09;96472.66;;;5.74;82.34
29247;BME280;16272;48.188;9.964;2023-05-03T00:18:34;96475.97;;;5.38;83.61
29247;BME280;16272;48.188;9.964;2023-05-03T00:20:59;96468.72;;;5.28;84.40
29247;BME280;16272;48.188;9.964;2023-05-03T00:23:25;96477.38;;;5.82;82.05
29247;BME280;16272;48.188;9.964;2023-05-03T00:25:53;96465.34;;;5.52;83.72
29247;BME280;16272;48.188;9.964;2023-05-03T00:28:19;96468.00;;;5.78;83.24
29247;BME280;16272;48.188;9.964;2023-05-03T00:30:44;96459.66;;;6.10;80.93
29247;BME280;16272;48.188;9.964;2023-05-03T00:33:10;96459.56;;;6.11;80.29
29247;BME280;16272;48.188;9.964;2023-05-03T00:35:35;96465.59;;;5.75;81.80
29247;BME280;16272;48.188;9.964;2023-05-03T00:38:00;96461.25;;;5.74;81.91
29247;BME280;16272;48.188;9.964;2023-05-03T00:40:25;96465.56;;;5.49;83.20
29247;BME280;16272;48.188;9.964;2023-05-03T00:42:51;96472.84;;;5.45;82.54
29247;BME280;16272;48.188;9.964;2023-05-03T00:45:16;96466.72;;;5.45;83.34
29247;BME280;16272;48.188;9.964;2023-05-03T00:47:41;96457.47;;;5.91;81.33
29247;BME280;16272;48.188;9.964;2023-05-03T00:50:08;96455.78;;;5.77;80.79
29247;BME280;16272;48.188;9.964;2023-05-03T00:52:36;96452.41;;;5.75;81.13
29247;BME280;16272;48.188;9.964;2023-05-03T00:55:02;96453.56;;;5.96;79.60
29247;BME280;16272;48.188;9.964;2023-05-03T00:57:28;96454.09;;;6.01;78.19
29247;BME280;16272;48.188;9.964;2023-05-03T00:59:55;96450.69;;;5.86;79.58
29247;BME280;16272;48.188;9.964;2023-05-03T01:02:21;96455.16;;;5.86;78.43
29247;BME280;16272;48.188;9.964;2023-05-03T01:04:46;96459.56;;;5.60;79.33
29247;BME280;16272;48.188;9.964;2023-05-03T01:10:27;96458.28;;;5.65;79.85
29247;BME280;16272;48.188;9.964;2023-05-03T01:13:19;96449.88;;;5.60;79.26
29247;BME280;16272;48.188;9.964;2023-05-03T01:15:58;96455.34;;;5.70;78.53
29247;BME280;16272;48.188;9.964;2023-05-03T01:18:36;96451.34;;;5.64;79.52
29247;BME280;16272;48.188;9.964;2023-05-03T01:21:03;96455.66;;;5.40;80.58
29247;BME280;16272;48.188;9.964;2023-05-03T01:23:39;96441.13;;;5.47;80.46
29247;BME280;16272;48.188;9.964;2023-05-03T01:26:22;96447.03;;;5.63;79.44
29247;BME280;16272;48.188;9.964;2023-05-03T01:28:48;96452.91;;;5.28;79.40
29247;BME280;16272;48.188;9.964;2023-05-03T01:31:43;96446.06;;;5.39;79.22
29247;BME280;16272;48.188;9.964;2023-05-03T01:36:44;96444.91;;;5.56;76.86
29247;BME280;16272;48.188;9.964;2023-05-03T01:39:15;96447.97;;;5.88;76.29
29247;BME280;16272;48.188;9.964;2023-05-03T01:41:42;96451.13;;;5.93;76.25
29247;BME280;16272;48.188;9.964;2023-05-03T01:44:09;96439.13;;;5.89;76.31
29247;BME280;16272;48.188;9.964;2023-05-03T01:46:44;96448.31;;;5.96;76.23
29247;BME280;16272;48.188;9.964;2023-05-03T01:49:09;96450.69;;;5.35;79.66
29247;BME280;16272;48.188;9.964;2023-05-03T01:51:35;96451.56;;;5.61;78.23
29247;BME280;16272;48.188;9.964;2023-05-03T01:54:00;96438.91;;;5.53;76.64
29247;BME280;16272;48.188;9.964;2023-05-03T01:56:25;96447.03;;;5.89;75.16
29247;BME280;16272;48.188;9.964;2023-05-03T01:58:51;96449.75;;;5.49;77.25
29247;BME280;16272;48.188;9.964;2023-05-03T02:01:16;96443.28;;;5.14;78.73
29247;BME280;16272;48.188;9.964;2023-05-03T02:03:41;96452.53;;;5.07;79.30
29247;BME280;16272;48.188;9.964;2023-05-03T02:06:07;96456.97;;;5.20;77.71
29247;BME280;16272;48.188;9.964;2023-05-03T02:08:32;96459.19;;;5.13;78.04
29247;BME280;16272;48.188;9.964;2023-05-03T02:10:57;96456.22;;;5.05;78.05
29247;BME280;16272;48.188;9.964;2023-05-03T02:13:23;96455.19;;;4.80;79.28
29247;BME280;16272;48.188;9.964;2023-05-03T02:15:48;96453.34;;;4.95;78.62
29247;BME280;16272;48.188;9.964;2023-05-03T02:18:13;96463.94;;;4.81;78.59
29247;BME280;16272;48.188;9.964;2023-05-03T02:20:43;96460.00;;;4.73;80.17
29247;BME280;16272;48.188;9.964;2023-05-03T02:23:09;96456.97;;;4.79;79.44
29247;BME280;16272;48.188;9.964;2023-05-03T02:25:34;96456.16;;;4.37;81.04
29247;BME280;16272;48.188;9.964;2023-05-03T02:27:59;96455.16;;;4.26;81.82
29247;BME280;16272;48.188;9.964;2023-05-03T02:30:25;96463.75;;;4.42;80.64
29247;BME280;16272;48.188;9.964;2023-05-03T02:32:50;96457.84;;;4.53;81.01
29247;BME280;16272;48.188;9.964;2023-05-03T02:35:16;96457.75;;;4.40;81.14
29247;BME280;16272;48.188;9.964;2023-05-03T02:37:41;96460.50;;;4.38;80.69
29247;BME280;16272;48.188;9.964;2023-05-03T02:40:08;96459.19;;;4.73;79.89
29247;BME280;16272;48.188;9.964;2023-05-03T02:42:36;96457.91;;;4.66;80.38
29247;BME280;16272;48.188;9.964;2023-05-03T02:45:01;96447.94;;;4.56;79.25
29247;BME280;16272;48.188;9.964;2023-05-03T02:47:27;96447.69;;;4.47;80.36
29247;BME280;16272;48.188;9.964;2023-05-03T02:49:52;96450.50;;;4.02;81.87
29247;BME280;16272;48.188;9.964;2023-05-03T02:52:18;96445.25;;;3.88;82.41
29247;BME280;16272;48.188;9.964;2023-05-03T02:54:43;96441.47;;;3.92;82.75
29247;BME280;16272;48.188;9.964;2023-05-03T02:57:11;96453.13;;;3.73;83.12
29247;BME280;16272;48.188;9.964;2023-05-03T02:59:37;96447.13;;;3.71;83.44
29247;BME280;16272;48.188;9.964;2023-05-03T03:02:02;96447.78;;;3.75;82.17
29247;BME280;16272;48.188;9.964;2023-05-03T03:04:28;96453.41;;;3.83;81.89
29247;BME280;16272;48.188;9.964;2023-05-03T03:06:53;96443.72;;;4.12;80.39
29247;BME280;16272;48.188;9.964;2023-05-03T03:09:18;96443.91;;;4.23;78.81
29247;BME280;16272;48.188;9.964;2023-05-03T03:11:44;96456.69;;;4.01;80.44
29247;BME280;16272;48.188;9.964;2023-05-03T03:14:09;96449.94;;;3.97;80.74
29247;BME280;16272;48.188;9.964;2023-05-03T03:16:35;96451.19;;;4.33;79.41
29247;BME280;16272;48.188;9.964;2023-05-03T03:19:00;96448.72;;;4.44;79.27
29247;BME280;16272;48.188;9.964;2023-05-03T03:21:25;96452.13;;;4.46;79.73
29247;BME280;16272;48.188;9.964;2023-05-03T03:23:53;96457.38;;;4.46;79.78
29247;BME280;16272;48.188;9.964;2023-05-03T03:26:18;96453.28;;;4.69;80.29
29247;BME280;16272;48.188;9.964;2023-05-03T03:28:43;96460.97;;;4.16;82.14
29247;BME280;16272;48.188;9.964;2023-05-03T03:31:09;96449.91;;;4.26;81.85
29247;BME280;16272;48.188;9.964;2023-05-03T03:33:34;96450.63;;;4.42;81.91
29247;BME280;16272;48.188;9.964;2023-05-03T03:36:00;96448.31;;;4.65;81.25
29247;BME280;16272;48.188;9.964;2023-05-03T03:38:25;96447.63;;;4.88;81.25
29247;BME280;16272;48.188;9.964;2023-05-03T03:40:50;96450.91;;;5.32;79.17
29247;BME280;16272;48.188;9.964;2023-05-03T03:43:16;96454.69;;;5.41;78.73
29247;BME280;16272;48.188;9.964;2023-05-03T03:45:42;96459.72;;;5.18;79.64
29247;BME280;16272;48.188;9.964;2023-05-03T03:48:07;96456.63;;;5.64;78.25
29247;BME280;16272;48.188;9.964;2023-05-03T03:50:33;96454.72;;;5.92;80.35
29247;BME280;16272;48.188;9.964;2023-05-03T03:52:59;96459.13;;;5.92;80.19
29247;BME280;16272;48.188;9.964;2023-05-03T03:55:24;96459.56;;;6.24;79.00
29247;BME280;16272;48.188;9.964;2023-05-03T03:57:50;96463.16;;;6.60;80.62
29247;BME280;16272;48.188;9.964;2023-05-03T04:00:15;96462.38;;;6.71;81.41
29247;BME280;16272;48.188;9.964;2023-05-03T04:02:40;96464.34;;;7.04;80.69
29247;BME280;16272;48.188;9.964;2023-05-03T04:05:06;96463.66;;;7.13;79.43
29247;BME280;16272;48.188;9.964;2023-05-03T04:07:32;96467.19;;;7.25;82.86
29247;BME280;16272;48.188;9.964;2023-05-03T04:09:57;96454.53;;;7.53;81.09
29247;BME280;16272;48.188;9.964;2023-05-03T04:12:23;96456.13;;;7.67;80.38
29247;BME280;16272;48.188;9.964;2023-05-03T04:14:49;96461.63;;;7.64;81.24
29247;BME280;16272;48.188;9.964;2023-05-03T04:17:14;96458.78;;;7.78;80.16
29247;BME280;16272;48.188;9.964;2023-05-03T04:19:40;96466.97;;;7.86;79.06
29247;BME280;16272;48.188;9.964;2023-05-03T04:22:05;96463.59;;;7.73;81.58
29247;BME280;16272;48.188;9.964;2023-05-03T04:24:31;96469.50;;;8.10;80.53
29247;BME280;16272;48.188;9.964;2023-05-03T04:26:56;96470.81;;;8.05;81.94
29247;BME280;16272;48.188;9.964;2023-05-03T04:29:23;96468.53;;;8.23;79.89
29247;BME280;16272;48.188;9.964;2023-05-03T04:31:49;96474.69;;;8.46;78.59
29247;BME280;16272;48.188;9.964;2023-05-03T04:34:14;96470.50;;;8.43;80.61
29247;BME280;16272;48.188;9.964;2023-05-03T04:36:40;96478.75;;;8.16;81.28
29247;BME280;16272;48.188;9.964;2023-05-03T04:39:06;96469.63;;;8.20;82.74
29247;BME280;16272;48.188;9.964;2023-05-03T04:41:32;96478.56;;;8.53;81.39
29247;BME280;16272;48.188;9.964;2023-05-03T04:43:58;96473.34;;;8.74;79.78
29247;BME280;16272;48.188;9.964;2023-05-03T04:46:23;96469.34;;;8.80;78.92
29247;BME280;16272;48.188;9.964;2023-05-03T04:48:49;96481.44;;;8.61;80.29
29247;BME280;16272;48.188;9.964;2023-05-03T04:51:14;96488.66;;;8.48;81.29
29247;BME280;16272;48.188;9.964;2023-05-03T04:53:39;96490.03;;;8.86;80.41
29247;BME280;16272;48.188;9.964;2023-05-03T04:56:05;96491.31;;;8.59;81.68
29247;BME280;16272;48.188;9.964;2023-05-03T04:58:31;96492.81;;;7.83;86.03
29247;BME280;16272;48.188;9.964;2023-05-03T05:00:57;96488.75;;;8.35;84.84
29247;BME280;16272;48.188;9.964;2023-05-03T05:03:22;96489.63;;;8.47;83.39
29247;BME280;16272;48.188;9.964;2023-05-03T05:05:47;96491.41;;;8.69;81.11
29247;BME280;16272;48.188;9.964;2023-05-03T05:08:13;96492.25;;;8.02;84.71
29247;BME280;16272;48.188;9.964;2023-05-03T05:10:42;96493.34;;;7.64;87.65
29247;BME280;16272;48.188;9.964;2023-05-03T05:13:07;96498.66;;;7.28;89.59
29247;BME280;16272;48.188;9.964;2023-05-03T05:15:32;96506.09;;;7.59;89.22
29247;BME280;16272;48.188;9.964;2023-05-03T05:17:59;96503.06;;;8.10;86.54
29247;BME280;16272;48.188;9.964;2023-05-03T05:20:24;96500.66;;;7.96;86.61
29247;BME280;16272;48.188;9.964;2023-05-03T05:22:50;96502.47;;;8.18;86.55
29247;BME280;16272;48.188;9.964;2023-05-03T05:25:15;96509.22;;;7.64;87.66
29247;BME280;16272;48.188;9.964;2023-05-03T05:27:41;96511.91;;;7.75;87.79
29247;BME280;16272;48.188;9.964;2023-05-03T05:30:06;96510.25;;;8.08;85.37
29247;BME280;16272;48.188;9.964;2023-05-03T05:32:32;96516.13;;;7.42;88.12
29247;BME280;16272;48.188;9.964;2023-05-03T05:34:57;96512.09;;;8.19;86.42
29247;BME280;16272;48.188;9.964;2023-05-03T05:37:24;96515.34;;;8.34;83.78
29247;BME280;16272;48.188;9.964;2023-05-03T05:39:50;96517.63;;;8.38;84.51
29247;BME280;16272;48.188;9.964;2023-05-03T05:42:16;96519.94;;;8.54;82.87
29247;BME280;16272;48.188;9.964;2023-05-03T05:44:41;96512.59;;;8.58;82.54
29247;BME280;16272;48.188;9.964;2023-05-03T05:47:07;96514.91;;;8.51;83.23
29247;BME280;16272;48.188;9.964;2023-05-03T05:49:32;96522.84;;;8.62;83.87
29247;BME280;16272;48.188;9.964;2023-05-03T05:51:58;96517.50;;;8.85;81.70
29247;BME280;16272;48.188;9.964;2023-05-03T05:54:23;96521.09;;;8.95;81.44
29247;BME280;16272;48.188;9.964;2023-05-03T05:56:48;96525.19;;;8.88;82.19
29247;BME280;16272;48.188;9.964;2023-05-03T05:59:15;96525.22;;;8.77;82.61
29247;BME280;16272;48.188;9.964;2023-05-03T06:01:40;96530.38;;;9.33;80.16
29247;BME280;16272;48.188;9.964;2023-05-03T06:04:09;96524.34;;;8.99;80.32
29247;BME280;16272;48.188;9.964;2023-05-03T06:06:34;96529.31;;;8.70;83.12
29247;BME280;16272;48.188;9.964;2023-05-03T06:09:00;96530.84;;;8.83;82.56
29247;BME280;16272;48.188;9.964;2023-05-03T06:11:26;96536.66;;;8.89;82.94
29247;BME280;16272;48.188;9.964;2023-05-03T06:13:51;96530.56;;;9.09;81.36
29247;BME280;16272;48.188;9.964;2023-05-03T06:16:17;96532.88;;;9.46;79.53
29247;BME280;16272;48.188;9.964;2023-05-03T06:18:42;96533.13;;;9.43;79.01
29247;BME280;16272;48.188;9.964;2023-05-03T06:21:07;96536.22;;;9.81;77.91
29247;BME280;16272;48.188;9.964;2023-05-03T06:23:34;96535.06;;;9.62;77.57
29247;BME280;16272;48.188;9.964;2023-05-03T06:26:01;96543.19;;;9.49;77.66
29247;BME280;16272;48.188;9.964;2023-05-03T06:28:27;96542.44;;;9.59;77.49
29247;BME280;16272;48.188;9.964;2023-05-03T06:30:52;96548.94;;;9.33;78.81
29247;BME280;16272;48.188;9.964;2023-05-03T06:33:17;96545.91;;;9.38;78.82
29247;BME280;16272;48.188;9.964;2023-05-03T06:35:43;96542.69;;;9.55;78.48
29247;BME280;16272;48.188;9.964;2023-05-03T06:38:11;96549.16;;;8.75;81.66
29247;BME280;16272;48.188;9.964;2023-05-03T06:40:36;96542.56;;;8.58;82.59
29247;BME280;16272;48.188;9.964;2023-05-03T06:43:02;96543.56;;;9.12;82.85
29247;BME280;16272;48.188;9.964;2023-05-03T06:45:27;96542.44;;;9.26;81.49
29247;BME280;16272;48.188;9.964;2023-05-03T06:47:53;96541.78;;;9.01;82.99
29247;BME280;16272;48.188;9.964;2023-05-03T06:50:18;96546.69;;;9.17;82.20
29247;BME280;16272;48.188;9.964;2023-05-03T06:52:45;96539.31;;;9.21;81.43
29247;BME280;16272;48.188;9.964;2023-05-03T06:55:10;96535.53;;;9.67;79.13
29247;BME280;16272;48.188;9.964;2023-05-03T06:57:36;96531.47;;;10.05;76.79
29247;BME280;16272;48.188;9.964;2023-05-03T07:00:01;96533.16;;;10.06;76.54
29247;BME280;16272;48.188;9.964;2023-05-03T07:02:31;96531.94;;;10.10;75.79
29247;BME280;16272;48.188;9.964;2023-05-03T07:04:56;96534.69;;;9.67;77.52
29247;BME280;16272;48.188;9.964;2023-05-03T07:07:22;96539.03;;;9.68;77.63
29247;BME280;16272;48.188;9.964;2023-05-03T07:09:47;96535.53;;;9.67;79.35
29247;BME280;16272;48.188;9.964;2023-05-03T07:12:12;96542.53;;;9.04;81.04
29247;BME280;16272;48.188;9.964;2023-05-03T07:14:38;96529.88;;;9.40;81.46
29247;BME280;16272;48.188;9.964;2023-05-03T07:17:04;96533.53;;;9.27;81.67
29247;BME280;16272;48.188;9.964;2023-05-03T07:19:29;96528.69;;;9.65;79.91
29247;BME280;16272;48.188;9.964;2023-05-03T07:21:55;96523.38;;;10.07;77.18
29247;BME280;16272;48.188;9.964;2023-05-03T07:24:20;96518.88;;;10.50;76.32
29247;BME280;16272;48.188;9.964;2023-05-03T07:26:45;96524.53;;;9.93;76.52
29247;BME280;16272;48.188;9.964;2023-05-03T07:29:11;96520.44;;;10.31;76.02
29247;BME280;16272;48.188;9.964;2023-05-03T07:31:37;96519.22;;;10.35;76.11
29247;BME280;16272;48.188;9.964;2023-05-03T07:34:02;96519.88;;;10.06;76.40
29247;BME280;16272;48.188;9.964;2023-05-03T07:36:28;96516.88;;;10.42;75.86
29247;BME280;16272;48.188;9.964;2023-05-03T07:38:53;96508.19;;;10.80;74.56
29247;BME280;16272;48.188;9.964;2023-05-03T07:41:18;96511.72;;;10.40;75.27
29247;BME280;16272;48.188;9.964;2023-05-03T07:43:43;96510.13;;;10.69;73.74
29247;BME280;16272;48.188;9.964;2023-05-03T07:46:09;96514.44;;;10.08;75.87
29247;BME280;16272;48.188;9.964;2023-05-03T07:48:34;96510.00;;;10.39;75.06
29247;BME280;16272;48.188;9.964;2023-05-03T07:51:02;96507.06;;;10.73;74.84
29247;BME280;16272;48.188;9.964;2023-05-03T07:53:28;96508.16;;;10.71;73.46
29247;BME280;16272;48.188;9.964;2023-05-03T07:55:54;96513.28;;;10.43;74.96
29247;BME280;16272;48.188;9.964;2023-05-03T07:58:19;96511.19;;;10.46;74.03
29247;BME280;16272;48.188;9.964;2023-05-03T08:00:45;96510.66;;;10.53;75.97
29247;BME280;16272;48.188;9.964;2023-05-03T08:03:10;96517.66;;;10.11;77.04
29247;BME280;16272;48.188;9.964;2023-05-03T08:05:36;96513.72;;;10.06;77.46
29247;BME280;16272;48.188;9.964;2023-05-03T08:08:01;96513.63;;;9.86;79.13
29247;BME280;16272;48.188;9.964;2023-05-03T08:10:28;96514.06;;;10.12;77.95
29247;BME280;16272;48.188;9.964;2023-05-03T08:12:54;96517.41;;;10.36;77.81
29247;BME280;16272;48.188;9.964;2023-05-03T08:15:19;96509.47;;;10.76;76.03
29247;BME280;16272;48.188;9.964;2023-05-03T08:17:45;96509.56;;;10.65;76.10
29247;BME280;16272;48.188;9.964;2023-05-03T08:20:11;96515.47;;;10.78;75.11
29247;BME280;16272;48.188;9.964;2023-05-03T08:22:37;96511.44;;;10.84;73.96
29247;BME280;16272;48.188;9.964;2023-05-03T08:25:03;96513.06;;;10.65;75.40
29247;BME280;16272;48.188;9.964;2023-05-03T08:27:29;96516.06;;;10.41;77.34
29247;BME280;16272;48.188;9.964;2023-05-03T08:29:55;96504.31;;;10.84;74.37
29247;BME280;16272;48.188;9.964;2023-05-03T08:32:20;96503.38;;;11.25;74.14
29247;BME280;16272;48.188;9.964;2023-05-03T08:34:46;96498.84;;;10.76;73.29
29247;BME280;16272;48.188;9.964;2023-05-03T08:37:11;96501.03;;;11.12;74.17
29247;BME280;16272;48.188;9.964;2023-05-03T08:39:37;96497.53;;;11.50;73.31
29247;BME280;16272;48.188;9.964;2023-05-03T08:42:07;96506.84;;;10.86;73.25
29247;BME280;16272;48.188;9.964;2023-05-03T08:44:36;96507.00;;;10.94;74.80
29247;BME280;16272;48.188;9.964;2023-05-03T08:47:02;96500.72;;;10.55;76.45
29247;BME280;16272;48.188;9.964;2023-05-03T08:49:30;96508.88;;;10.63;77.14
29247;BME280;16272;48.188;9.964;2023-05-03T08:51:55;96503.88;;;10.79;76.53
29247;BME280;16272;48.188;9.964;2023-05-03T08:54:21;96508.00;;;10.32;76.92
29247;BME280;16272;48.188;9.964;2023-05-03T08:56:48;96505.50;;;10.61;76.45
29247;BME280;16272;48.188;9.964;2023-05-03T08:59:15;96502.16;;;11.68;73.20
29247;BME280;16272;48.188;9.964;2023-05-03T09:01:42;96497.81;;;11.37;74.14
29247;BME280;16272;48.188;9.964;2023-05-03T09:04:09;96503.00;;;11.58;72.82
29247;BME280;16272;48.188;9.964;2023-05-03T09:06:35;96499.91;;;11.92;72.75
29247;BME280;16272;48.188;9.964;2023-05-03T09:09:03;96500.66;;;12.32;71.37
29247;BME280;16272;48.188;9.964;2023-05-03T09:11:33;96517.13;;;11.39;71.93
29247;BME280;16272;48.188;9.964;2023-05-03T09:14:10;96513.91;;;11.94;71.16
29247;BME280;16272;48.188;9.964;2023-05-03T09:16:37;96527.34;;;11.44;72.59
29247;BME280;16272;48.188;9.964;2023-05-03T09:19:04;96524.13;;;11.70;71.12
29247;BME280;16272;48.188;9.964;2023-05-03T09:21:32;96514.63;;;12.44;69.82
29247;BME280;16272;48.188;9.964;2023-05-03T09:23:58;96532.47;;;11.16;73.35
29247;BME280;16272;48.188;9.964;2023-05-03T09:26:28;96531.56;;;11.76;71.88
29247;BME280;16272;48.188;9.964;2023-05-03T09:28:54;96523.97;;;12.20;69.95
29247;BME280;16272;48.188;9.964;2023-05-03T09:31:20;96531.00;;;11.63;71.87
29247;BME280;16272;48.188;9.964;2023-05-03T09:33:46;96527.00;;;13.00;68.35
29247;BME280;16272;48.188;9.964;2023-05-03T09:36:11;96530.69;;;12.14;71.32
29247;BME280;16272;48.188;9.964;2023-05-03T09:38:36;96526.78;;;12.94;68.16
29247;BME280;16272;48.188;9.964;2023-05-03T09:41:02;96519.41;;;13.05;67.45
29247;BME280;16272;48.188;9.964;2023-05-03T09:43:30;96517.72;;;13.04;67.88
29247;BME280;16272;48.188;9.964;2023-05-03T09:46:09;96517.53;;;12.88;66.82
29247;BME280;16272;48.188;9.964;2023-05-03T09:48:36;96511.94;;;13.55;65.94
29247;BME280;16272;48.188;9.964;2023-05-03T09:51:02;96517.09;;;12.93;66.21
29247;BME280;16272;48.188;9.964;2023-05-03T09:53:30;96512.00;;;13.63;66.29
29247;BME280;16272;48.188;9.964;2023-05-03T09:55:56;96511.66;;;13.30;65.79
29247;BME280;16272;48.188;9.964;2023-05-03T09:58:23;96523.97;;;13.41;67.68
29247;BME280;16272;48.188;9.964;2023-05-03T10:00:50;96514.78;;;13.26;68.90
29247;BME280;16272;48.188;9.964;2023-05-03T10:03:27;96515.81;;;13.60;66.91
29247;BME280;16272;48.188;9.964;2023-05-03T10:05:54;96513.41;;;13.93;66.39
29247;BME280;16272;48.188;9.964;2023-05-03T10:11:04;96515.94;;;14.47;63.79
29247;BME280;16272;48.188;9.964;2023-05-03T10:13:32;96516.66;;;13.79;63.57
29247;BME280;16272;48.188;9.964;2023-05-03T10:16:13;96508.72;;;13.69;70.36
29247;BME280;16272;48.188;9.964;2023-05-03T10:18:46;96506.78;;;13.26;66.12
29247;BME280;16272;48.188;9.964;2023-05-03T10:21:22;96502.97;;;13.28;67.24
29247;BME280;16272;48.188;9.964;2023-05-03T10:24:08;96506.19;;;13.86;63.54
29247;BME280;16272;48.188;9.964;2023-05-03T10:26:33;96508.19;;;13.48;67.93
29247;BME280;16272;48.188;9.964;2023-05-03T10:28:59;96504.88;;;13.90;68.64
29247;BME280;16272;48.188;9.964;2023-05-03T10:34:19;96503.28;;;14.49;64.66
29247;BME280;16272;48.188;9.964;2023-05-03T10:36:46;96502.53;;;15.08;62.05
29247;BME280;16272;48.188;9.964;2023-05-03T10:39:15;96486.88;;;15.30;60.27
29247;BME280;16272;48.188;9.964;2023-05-03T10:41:40;96486.00;;;15.13;61.09
29247;BME280;16272;48.188;9.964;2023-05-03T10:44:24;96491.28;;;14.88;61.02
29247;BME280;16272;48.188;9.964;2023-05-03T10:46:52;96498.22;;;14.38;62.95
29247;BME280;16272;48.188;9.964;2023-05-03T10:49:22;96490.75;;;14.84;61.79
29247;BME280;16272;48.188;9.964;2023-05-03T10:51:48;96488.47;;;14.29;61.16
29247;BME280;16272;48.188;9.964;2023-05-03T10:54:14;96489.13;;;15.00;62.04
29247;BME280;16272;48.188;9.964;2023-05-03T10:56:51;96495.03;;;13.72;62.65
29247;BME280;16272;48.188;9.964;2023-05-03T10:59:17;96484.22;;;14.79;67.05
29247;BME280;16272;48.188;9.964;2023-05-03T11:01:43;96480.56;;;15.72;63.27
29247;BME280;16272;48.188;9.964;2023-05-03T11:04:34;96468.53;;;16.01;61.42
29247;BME280;16272;48.188;9.964;2023-05-03T11:07:02;96470.06;;;14.95;60.89
29247;BME280;16272;48.188;9.964;2023-05-03T11:09:30;96471.03;;;15.69;59.65
29247;BME280;16272;48.188;9.964;2023-05-03T11:11:56;96476.19;;;15.54;59.26
29247;BME280;16272;48.188;9.964;2023-05-03T11:14:22;96477.00;;;14.10;60.33
29247;BME280;16272;48.188;9.964;2023-05-03T11:16:47;96476.34;;;14.77;60.36
29247;BME280;16272;48.188;9.964;2023-05-03T11:19:15;96470.81;;;15.38;62.00
29247;BME280;16272;48.188;9.964;2023-05-03T11:21:41;96475.41;;;14.95;63.35
29247;BME280;16272;48.188;9.964;2023-05-03T11:24:07;96477.41;;;14.24;63.83
29247;BME280;16272;48.188;9.964;2023-05-03T11:26:38;96467.13;;;14.37;66.94
29247;BME280;16272;48.188;9.964;2023-05-03T11:29:03;96472.44;;;15.06;64.66
29247;BME280;16272;48.188;9.964;2023-05-03T11:31:29;96457.78;;;16.25;59.67
29247;BME280;16272;48.188;9.964;2023-05-03T11:33:54;96458.31;;;16.12;64.89
29247;BME280;16272;48.188;9.964;2023-05-03T11:36:20;96454.06;;;17.22;59.80
29247;BME280;16272;48.188;9.964;2023-05-03T11:38:45;96459.47;;;16.10;62.74
29247;BME280;16272;48.188;9.964;2023-05-03T11:41:15;96454.84;;;16.99;57.11
29247;BME280;16272;48.188;9.964;2023-05-03T11:43:42;96459.97;;;16.86;55.33
29247;BME280;16272;48.188;9.964;2023-05-03T11:46:08;96460.66;;;16.15;58.24
29247;BME280;16272;48.188;9.964;2023-05-03T11:48:35;96453.91;;;16.28;58.47
29247;BME280;16272;48.188;9.964;2023-05-03T11:51:06;96449.78;;;16.09;60.38
29247;BME280;16272;48.188;9.964;2023-05-03T11:53:32;96449.31;;;16.61;58.50
29247;BME280;16272;48.188;9.964;2023-05-03T11:55:57;96454.59;;;16.86;57.36
29247;BME280;16272;48.188;9.964;2023-05-03T11:58:25;96446.63;;;16.61;57.51
29247;BME280;16272;48.188;9.964;2023-05-03T12:00:52;96453.63;;;15.57;60.41
29247;BME280;16272;48.188;9.964;2023-05-03T12:03:23;96460.81;;;15.40;59.18
29247;BME280;16272;48.188;9.964;2023-05-03T12:05:50;96446.97;;;16.58;62.21
29247;BME280;16272;48.188;9.964;2023-05-03T12:08:17;96437.81;;;16.36;58.79
29247;BME280;16272;48.188;9.964;2023-05-03T12:10:44;96436.41;;;16.57;61.04
29247;BME280;16272;48.188;9.964;2023-05-03T12:13:09;96425.69;;;16.96;57.75
29247;BME280;16272;48.188;9.964;2023-05-03T12:15:37;96433.97;;;16.30;58.10
29247;BME280;16272;48.188;9.964;2023-05-03T12:18:07;96430.59;;;16.45;60.27
29247;BME280;16272;48.188;9.964;2023-05-03T12:20:34;96413.56;;;17.00;54.74
29247;BME280;16272;48.188;9.964;2023-05-03T12:23:02;96417.06;;;17.32;56.76
29247;BME280;16272;48.188;9.964;2023-05-03T12:25:29;96410.94;;;16.92;56.16
29247;BME280;16272;48.188;9.964;2023-05-03T12:27:57;96406.63;;;18.13;54.78
29247;BME280;16272;48.188;9.964;2023-05-03T12:30:23;96406.78;;;18.35;50.39
29247;BME280;16272;48.188;9.964;2023-05-03T12:32:48;96407.72;;;17.51;54.59
29247;BME280;16272;48.188;9.964;2023-05-03T12:35:14;96408.38;;;17.53;53.72
29247;BME280;16272;48.188;9.964;2023-05-03T12:37:40;96412.16;;;17.13;52.78
29247;BME280;16272;48.188;9.964;2023-05-03T12:40:06;96411.09;;;16.03;56.52
29247;BME280;16272;48.188;9.964;2023-05-03T12:42:32;96401.03;;;16.61;56.37
29247;BME280;16272;48.188;9.964;2023-05-03T12:44:58;96391.47;;;16.98;56.23
29247;BME280;16272;48.188;9.964;2023-05-03T12:47:24;96383.00;;;17.71;58.34
29247;BME280;16272;48.188;9.964;2023-05-03T12:49:51;96376.75;;;17.40;57.08
29247;BME280;16272;48.188;9.964;2023-05-03T12:52:16;96378.75;;;18.29;51.27
29247;BME280;16272;48.188;9.964;2023-05-03T12:54:42;96370.25;;;17.73;53.57
29247;BME280;16272;48.188;9.964;2023-05-03T12:57:08;96370.06;;;17.74;54.01
29247;BME280;16272;48.188;9.964;2023-05-03T12:59:35;96372.97;;;17.03;54.88
29247;BME280;16272;48.188;9.964;2023-05-03T13:02:01;96369.00;;;16.99;55.73
29247;BME280;16272;48.188;9.964;2023-05-03T13:04:26;96370.34;;;17.64;53.21
29247;BME280;16272;48.188;9.964;2023-05-03T13:06:53;96361.78;;;17.99;54.03
29247;BME280;16272;48.188;9.964;2023-05-03T13:09:18;96358.03;;;18.74;50.53
29247;BME280;16272;48.188;9.964;2023-05-03T13:11:44;96361.88;;;18.21;51.29
29247;BME280;16272;48.188;9.964;2023-05-03T13:14:11;96350.56;;;18.40;48.31